Meteo Giornale » Osservazioni meteo Iraq » Najaf Al-ashraf Intl
ore: 08:00 - Osservazioni Meteo Najaf Al-ashraf Intl
Lat. 31° 59' N Lon. 44° 24' E Alt. 32 metri s.l.m.
32 °C
Sereno
Temp. 24 Ore
26 °C
39 °C
Nord-Est
7.4 Km/h
Dew point 13 °C
Umidità 31 %
Visibilità 8 Km
Il sole sorge alle ore 05:37
Il sole tramonta alle ore 18:27
| Data e Ora | Cielo e Fenomeni | T °C | DP °C | Um. % | Pres. hPa | Vis. km | Vento km/h | |
|---|---|---|---|---|---|---|---|---|
| Oggi h: 08:00 | Sereno | 32 | 13 | 31 | 1007 | 8 | NE 7.4 | |
| Oggi h: 07:00 | Sereno | 28 | 12 | 37 | 1007 | 8 | N 0 | |
| Oggi h: 06:00 | Sereno | 26 | 11 | 39 | 1006 | 7 | O 7.4 | |
| Oggi h: 05:00 | Sereno | 26 | 12 | 41 | 1006 | 7 | O 9.3 | |
| Oggi h: 04:00 | Sereno | 28 | 13 | 39 | 1006 | 7 | S/SO 11.1 | |
| Oggi h: 01:00 | Sereno | 28 | 13 | 39 | 1006 | 7 | N 0 | |
| Oggi h: 00:00 | Sereno | 31 | 13 | 33 | 1006 | 7 | N 0 | |
| Ieri h: 23:00 | Sereno | 31 | 13 | 33 | 1006 | 7 | NE 9.3 | |
| Ieri h: 22:00 | Sereno | 33 | 12 | 27 | 1006 | 7 | NE 9.3 | |
| Ieri h: 21:00 | Sereno | 34 | 12 | 26 | 1006 | 7 | N 9.3 | |
| Ieri h: 20:00 | Sereno | 35 | 12 | 24 | 1006 | 6 | N 11.1 | |
| Ieri h: 19:00 | Sereno | 36 | 13 | 25 | 1005 | 6 | N 18.5 | |
| Ieri h: 18:00 | Sereno | 38 | 12 | 21 | 1005 | 7 | N/NE 16.7 | |
| Ieri h: 17:00 | Sereno | 39 | 11 | 18 | 1005 | 8 | N 16.7 | |
| Ieri h: 16:00 | Sereno | 39 | 12 | 20 | 1005 | 8 | N 22.2 | |
| Ieri h: 15:00 | Sereno | 39 | 12 | 20 | 1005 | 8 | N 25.9 | |
| Ieri h: 14:00 | Sereno | 39 | 11 | 18 | 1006 | 8 | N 14.8 | |
| Ieri h: 13:00 | Sereno | 39 | 11 | 18 | 1006 | 8 | N/NO 11.1 | |
| Ieri h: 12:00 | Sereno | 37 | 11 | 20 | 1007 | 8 | N 0 | |
| Ieri h: 11:00 | Sereno | 36 | 12 | 23 | 1007 | 8 | N 20.3 | |
| Ieri h: 10:00 | Sereno | 35 | 13 | 26 | 1007 | 8 | N/NE 16.7 | |
| Ieri h: 09:00 | Sereno | 33 | 12 | 27 | 1006 | 8 | N 14.8 | |



